sensor_id;sensor_type;location;lat;lon;timestamp;temperature;humidity
17992;DHT22;9121;50.926;5.340;2023-12-28T00:01:43;10.80;99.90
17992;DHT22;9121;50.926;5.340;2023-12-28T00:04:10;10.70;99.90
17992;DHT22;9121;50.926;5.340;2023-12-28T00:06:38;10.80;99.90
17992;DHT22;9121;50.926;5.340;2023-12-28T00:09:05;10.70;99.90
17992;DHT22;9121;50.926;5.340;2023-12-28T00:11:32;10.70;1.00
17992;DHT22;9121;50.926;5.340;2023-12-28T00:13:59;10.70;1.00
17992;DHT22;9121;50.926;5.340;2023-12-28T00:16:26;10.70;1.00
17992;DHT22;9121;50.926;5.340;2023-12-28T00:18:53;10.70;1.00
17992;DHT22;9121;50.926;5.340;2023-12-28T00:21:20;10.60;1.00
17992;DHT22;9121;50.926;5.340;2023-12-28T00:23:49;10.60;1.00
17992;DHT22;9121;50.926;5.340;2023-12-28T00:26:15;10.60;1.00
17992;DHT22;9121;50.926;5.340;2023-12-28T00:28:46;10.60;1.00
17992;DHT22;9121;50.926;5.340;2023-12-28T00:31:13;10.50;1.00
17992;DHT22;9121;50.926;5.340;2023-12-28T00:33:40;10.50;1.00
17992;DHT22;9121;50.926;5.340;2023-12-28T00:36:08;10.50;1.00
17992;DHT22;9121;50.926;5.340;2023-12-28T00:38:34;10.50;1.00
17992;DHT22;9121;50.926;5.340;2023-12-28T00:41:03;10.60;1.00
17992;DHT22;9121;50.926;5.340;2023-12-28T00:43:30;10.50;1.00
17992;DHT22;9121;50.926;5.340;2023-12-28T00:45:57;10.50;1.00
17992;DHT22;9121;50.926;5.340;2023-12-28T00:48:24;10.50;1.00
17992;DHT22;9121;50.926;5.340;2023-12-28T00:50:52;10.50;1.00
17992;DHT22;9121;50.926;5.340;2023-12-28T00:53:20;10.40;1.00
17992;DHT22;9121;50.926;5.340;2023-12-28T00:55:48;10.40;1.00
17992;DHT22;9121;50.926;5.340;2023-12-28T00:58:16;10.40;1.00
17992;DHT22;9121;50.926;5.340;2023-12-28T01:00:43;10.40;1.00
17992;DHT22;9121;50.926;5.340;2023-12-28T01:03:10;10.40;1.00
17992;DHT22;9121;50.926;5.340;2023-12-28T01:05:37;10.40;1.00
17992;DHT22;9121;50.926;5.340;2023-12-28T01:08:05;10.40;1.00
17992;DHT22;9121;50.926;5.340;2023-12-28T01:10:32;10.40;1.00
17992;DHT22;9121;50.926;5.340;2023-12-28T01:12:59;10.40;1.00
17992;DHT22;9121;50.926;5.340;2023-12-28T01:15:27;10.50;1.00
17992;DHT22;9121;50.926;5.340;2023-12-28T01:17:54;10.50;1.00
17992;DHT22;9121;50.926;5.340;2023-12-28T01:20:21;10.40;1.00
17992;DHT22;9121;50.926;5.340;2023-12-28T01:22:48;10.40;1.00
17992;DHT22;9121;50.926;5.340;2023-12-28T01:25:16;10.50;1.00
17992;DHT22;9121;50.926;5.340;2023-12-28T01:27:43;10.50;1.00
17992;DHT22;9121;50.926;5.340;2023-12-28T01:30:10;10.50;1.00
17992;DHT22;9121;50.926;5.340;2023-12-28T01:32:38;10.50;1.00
17992;DHT22;9121;50.926;5.340;2023-12-28T01:35:06;10.60;1.00
17992;DHT22;9121;50.926;5.340;2023-12-28T01:37:33;10.50;1.00
17992;DHT22;9121;50.926;5.340;2023-12-28T01:40:00;10.60;1.00
17992;DHT22;9121;50.926;5.340;2023-12-28T01:42:28;10.60;1.00
17992;DHT22;9121;50.926;5.340;2023-12-28T01:44:56;10.70;1.00
17992;DHT22;9121;50.926;5.340;2023-12-28T01:47:23;10.70;1.00
17992;DHT22;9121;50.926;5.340;2023-12-28T01:49:52;10.70;1.00
17992;DHT22;9121;50.926;5.340;2023-12-28T01:52:20;10.70;1.00
17992;DHT22;9121;50.926;5.340;2023-12-28T01:54:47;10.80;1.00
17992;DHT22;9121;50.926;5.340;2023-12-28T01:57:16;10.80;1.00
17992;DHT22;9121;50.926;5.340;2023-12-28T01:59:43;10.80;1.00
17992;DHT22;9121;50.926;5.340;2023-12-28T02:02:11;10.80;1.00
17992;DHT22;9121;50.926;5.340;2023-12-28T02:04:38;10.80;1.00
17992;DHT22;9121;50.926;5.340;2023-12-28T02:07:07;10.80;1.00
17992;DHT22;9121;50.926;5.340;2023-12-28T02:09:35;10.80;1.00
17992;DHT22;9121;50.926;5.340;2023-12-28T02:12:02;10.80;1.00
17992;DHT22;9121;50.926;5.340;2023-12-28T02:14:29;10.80;1.00
17992;DHT22;9121;50.926;5.340;2023-12-28T02:17:02;10.80;1.00
17992;DHT22;9121;50.926;5.340;2023-12-28T02:19:40;10.80;1.00
17992;DHT22;9121;50.926;5.340;2023-12-28T02:22:13;10.80;1.00
17992;DHT22;9121;50.926;5.340;2023-12-28T02:25:02;10.80;1.00
17992;DHT22;9121;50.926;5.340;2023-12-28T02:27:29;10.70;1.00
17992;DHT22;9121;50.926;5.340;2023-12-28T02:29:57;10.70;1.00
17992;DHT22;9121;50.926;5.340;2023-12-28T02:32:30;10.70;1.00
17992;DHT22;9121;50.926;5.340;2023-12-28T02:35:06;10.60;1.00
17992;DHT22;9121;50.926;5.340;2023-12-28T02:37:35;10.60;1.00
17992;DHT22;9121;50.926;5.340;2023-12-28T02:40:06;10.60;1.00
17992;DHT22;9121;50.926;5.340;2023-12-28T02:42:34;10.60;1.00
17992;DHT22;9121;50.926;5.340;2023-12-28T02:45:01;10.60;1.00
17992;DHT22;9121;50.926;5.340;2023-12-28T02:47:28;10.60;1.00
17992;DHT22;9121;50.926;5.340;2023-12-28T02:49:55;10.60;1.00
17992;DHT22;9121;50.926;5.340;2023-12-28T02:52:24;10.60;1.00
17992;DHT22;9121;50.926;5.340;2023-12-28T02:54:51;10.60;1.00
17992;DHT22;9121;50.926;5.340;2023-12-28T02:57:20;10.60;1.00
17992;DHT22;9121;50.926;5.340;2023-12-28T02:59:47;10.60;1.00
17992;DHT22;9121;50.926;5.340;2023-12-28T03:02:14;10.60;1.00
17992;DHT22;9121;50.926;5.340;2023-12-28T03:04:41;10.60;1.00
17992;DHT22;9121;50.926;5.340;2023-12-28T03:07:08;10.50;1.00
17992;DHT22;9121;50.926;5.340;2023-12-28T03:09:35;10.50;1.00
17992;DHT22;9121;50.926;5.340;2023-12-28T03:12:04;10.50;1.00
17992;DHT22;9121;50.926;5.340;2023-12-28T03:14:33;10.50;1.00
17992;DHT22;9121;50.926;5.340;2023-12-28T03:17:00;10.50;1.00
17992;DHT22;9121;50.926;5.340;2023-12-28T03:19:27;10.50;1.00
17992;DHT22;9121;50.926;5.340;2023-12-28T03:21:54;10.50;1.00
17992;DHT22;9121;50.926;5.340;2023-12-28T03:24:21;10.50;1.00
17992;DHT22;9121;50.926;5.340;2023-12-28T03:26:48;10.50;1.00
17992;DHT22;9121;50.926;5.340;2023-12-28T03:29:16;10.50;1.00
17992;DHT22;9121;50.926;5.340;2023-12-28T03:31:44;10.50;1.00
17992;DHT22;9121;50.926;5.340;2023-12-28T03:34:11;10.50;1.00
17992;DHT22;9121;50.926;5.340;2023-12-28T03:36:38;10.50;1.00
17992;DHT22;9121;50.926;5.340;2023-12-28T03:39:05;10.50;1.00
17992;DHT22;9121;50.926;5.340;2023-12-28T03:41:32;10.50;1.00
17992;DHT22;9121;50.926;5.340;2023-12-28T03:43:59;10.50;1.00
17992;DHT22;9121;50.926;5.340;2023-12-28T03:46:26;10.40;1.00
17992;DHT22;9121;50.926;5.340;2023-12-28T03:48:53;10.40;1.00
17992;DHT22;9121;50.926;5.340;2023-12-28T03:51:20;10.50;1.00
17992;DHT22;9121;50.926;5.340;2023-12-28T03:53:47;10.50;1.00
17992;DHT22;9121;50.926;5.340;2023-12-28T03:56:24;10.50;1.00
17992;DHT22;9121;50.926;5.340;2023-12-28T03:58:52;10.50;1.00
17992;DHT22;9121;50.926;5.340;2023-12-28T04:01:18;10.60;1.00
17992;DHT22;9121;50.926;5.340;2023-12-28T04:03:45;10.60;1.00
17992;DHT22;9121;50.926;5.340;2023-12-28T04:06:14;10.60;1.00
17992;DHT22;9121;50.926;5.340;2023-12-28T04:08:41;10.60;1.00
17992;DHT22;9121;50.926;5.340;2023-12-28T04:11:09;10.70;1.00
17992;DHT22;9121;50.926;5.340;2023-12-28T04:13:36;10.70;1.00
17992;DHT22;9121;50.926;5.340;2023-12-28T04:16:05;10.70;1.00
17992;DHT22;9121;50.926;5.340;2023-12-28T04:18:32;10.70;1.00
17992;DHT22;9121;50.926;5.340;2023-12-28T04:20:59;10.70;1.00
17992;DHT22;9121;50.926;5.340;2023-12-28T04:23:27;10.70;1.00
17992;DHT22;9121;50.926;5.340;2023-12-28T04:25:54;10.70;1.00
17992;DHT22;9121;50.926;5.340;2023-12-28T04:28:21;10.70;1.00
17992;DHT22;9121;50.926;5.340;2023-12-28T04:30:48;10.70;1.00
17992;DHT22;9121;50.926;5.340;2023-12-28T04:33:17;10.70;1.00
17992;DHT22;9121;50.926;5.340;2023-12-28T04:35:44;10.70;1.00
17992;DHT22;9121;50.926;5.340;2023-12-28T04:38:12;10.70;1.00
17992;DHT22;9121;50.926;5.340;2023-12-28T04:40:41;10.70;1.00
17992;DHT22;9121;50.926;5.340;2023-12-28T04:43:08;10.70;1.00
17992;DHT22;9121;50.926;5.340;2023-12-28T04:45:35;10.70;1.00
17992;DHT22;9121;50.926;5.340;2023-12-28T04:48:02;10.70;1.00
17992;DHT22;9121;50.926;5.340;2023-12-28T04:50:29;10.70;1.00
17992;DHT22;9121;50.926;5.340;2023-12-28T04:52:56;10.70;1.00
17992;DHT22;9121;50.926;5.340;2023-12-28T04:55:23;10.80;1.00
17992;DHT22;9121;50.926;5.340;2023-12-28T04:57:52;10.80;1.00
17992;DHT22;9121;50.926;5.340;2023-12-28T05:00:19;10.90;1.00
17992;DHT22;9121;50.926;5.340;2023-12-28T05:02:46;10.80;1.00
17992;DHT22;9121;50.926;5.340;2023-12-28T05:05:13;10.90;1.00
17992;DHT22;9121;50.926;5.340;2023-12-28T05:07:40;10.90;1.00
17992;DHT22;9121;50.926;5.340;2023-12-28T05:10:07;10.90;1.00
17992;DHT22;9121;50.926;5.340;2023-12-28T05:12:34;10.90;1.00
17992;DHT22;9121;50.926;5.340;2023-12-28T05:15:04;10.90;1.00
17992;DHT22;9121;50.926;5.340;2023-12-28T05:17:31;10.90;1.00
17992;DHT22;9121;50.926;5.340;2023-12-28T05:19:58;10.90;1.00
17992;DHT22;9121;50.926;5.340;2023-12-28T05:22:25;10.90;1.00
17992;DHT22;9121;50.926;5.340;2023-12-28T05:24:52;10.90;1.00
17992;DHT22;9121;50.926;5.340;2023-12-28T05:27:19;10.90;1.00
17992;DHT22;9121;50.926;5.340;2023-12-28T05:29:45;10.90;1.00
17992;DHT22;9121;50.926;5.340;2023-12-28T05:32:14;10.90;1.00
17992;DHT22;9121;50.926;5.340;2023-12-28T05:34:41;10.90;1.00
17992;DHT22;9121;50.926;5.340;2023-12-28T05:37:08;10.90;1.00
17992;DHT22;9121;50.926;5.340;2023-12-28T05:39:35;10.80;1.00
17992;DHT22;9121;50.926;5.340;2023-12-28T05:42:02;10.80;1.00
17992;DHT22;9121;50.926;5.340;2023-12-28T05:44:29;10.80;1.00
17992;DHT22;9121;50.926;5.340;2023-12-28T05:46:56;10.80;1.00
17992;DHT22;9121;50.926;5.340;2023-12-28T05:49:24;10.70;1.00
17992;DHT22;9121;50.926;5.340;2023-12-28T05:51:54;10.70;1.00
17992;DHT22;9121;50.926;5.340;2023-12-28T05:54:21;10.70;1.00
17992;DHT22;9121;50.926;5.340;2023-12-28T05:56:48;10.70;1.00
17992;DHT22;9121;50.926;5.340;2023-12-28T05:59:15;10.70;1.00
17992;DHT22;9121;50.926;5.340;2023-12-28T06:01:43;10.70;1.00
17992;DHT22;9121;50.926;5.340;2023-12-28T06:04:10;10.60;1.00
17992;DHT22;9121;50.926;5.340;2023-12-28T06:06:38;10.60;1.00
17992;DHT22;9121;50.926;5.340;2023-12-28T06:09:05;10.60;1.00
17992;DHT22;9121;50.926;5.340;2023-12-28T06:11:33;10.60;1.00
17992;DHT22;9121;50.926;5.340;2023-12-28T06:14:00;10.60;1.00
17992;DHT22;9121;50.926;5.340;2023-12-28T06:16:27;10.70;1.00
17992;DHT22;9121;50.926;5.340;2023-12-28T06:18:58;10.70;1.00
17992;DHT22;9121;50.926;5.340;2023-12-28T06:21:25;10.70;1.00
17992;DHT22;9121;50.926;5.340;2023-12-28T06:23:53;10.70;1.00
17992;DHT22;9121;50.926;5.340;2023-12-28T06:26:20;10.70;1.00
17992;DHT22;9121;50.926;5.340;2023-12-28T06:28:47;10.80;1.00
17992;DHT22;9121;50.926;5.340;2023-12-28T06:31:14;10.80;1.00
17992;DHT22;9121;50.926;5.340;2023-12-28T06:33:41;10.80;1.00
17992;DHT22;9121;50.926;5.340;2023-12-28T06:36:10;10.80;1.00
17992;DHT22;9121;50.926;5.340;2023-12-28T06:38:37;10.80;1.00
17992;DHT22;9121;50.926;5.340;2023-12-28T06:41:11;10.80;1.00
17992;DHT22;9121;50.926;5.340;2023-12-28T06:43:38;10.80;1.00
17992;DHT22;9121;50.926;5.340;2023-12-28T06:46:06;10.80;1.00
17992;DHT22;9121;50.926;5.340;2023-12-28T06:48:33;10.80;1.00
17992;DHT22;9121;50.926;5.340;2023-12-28T06:51:00;10.80;1.00
17992;DHT22;9121;50.926;5.340;2023-12-28T06:53:27;10.80;1.00
17992;DHT22;9121;50.926;5.340;2023-12-28T06:55:54;10.80;1.00
17992;DHT22;9121;50.926;5.340;2023-12-28T06:58:23;10.70;1.00
17992;DHT22;9121;50.926;5.340;2023-12-28T07:00:50;10.80;1.00
17992;DHT22;9121;50.926;5.340;2023-12-28T07:03:17;10.70;1.00
17992;DHT22;9121;50.926;5.340;2023-12-28T07:05:44;10.70;1.00
17992;DHT22;9121;50.926;5.340;2023-12-28T07:08:11;10.70;1.00
17992;DHT22;9121;50.926;5.340;2023-12-28T07:10:38;10.70;1.00
17992;DHT22;9121;50.926;5.340;2023-12-28T07:13:05;10.60;1.00
17992;DHT22;9121;50.926;5.340;2023-12-28T07:15:33;10.60;1.00
17992;DHT22;9121;50.926;5.340;2023-12-28T07:18:00;10.60;1.00
17992;DHT22;9121;50.926;5.340;2023-12-28T07:20:27;10.60;1.00
17992;DHT22;9121;50.926;5.340;2023-12-28T07:22:54;10.60;1.00
17992;DHT22;9121;50.926;5.340;2023-12-28T07:25:21;10.70;1.00
17992;DHT22;9121;50.926;5.340;2023-12-28T07:27:48;10.70;1.00
17992;DHT22;9121;50.926;5.340;2023-12-28T07:30:15;10.70;1.00
17992;DHT22;9121;50.926;5.340;2023-12-28T07:32:44;10.80;1.00
17992;DHT22;9121;50.926;5.340;2023-12-28T07:35:11;10.80;1.00
17992;DHT22;9121;50.926;5.340;2023-12-28T07:37:38;10.80;1.00
17992;DHT22;9121;50.926;5.340;2023-12-28T07:40:06;10.80;1.00
17992;DHT22;9121;50.926;5.340;2023-12-28T07:42:33;10.70;1.00
17992;DHT22;9121;50.926;5.340;2023-12-28T07:45:01;10.60;1.00
17992;DHT22;9121;50.926;5.340;2023-12-28T07:47:28;10.70;1.00
17992;DHT22;9121;50.926;5.340;2023-12-28T07:49:56;10.70;1.00
17992;DHT22;9121;50.926;5.340;2023-12-28T07:52:23;10.70;1.00
17992;DHT22;9121;50.926;5.340;2023-12-28T07:54:50;10.70;1.00
17992;DHT22;9121;50.926;5.340;2023-12-28T07:57:18;10.70;1.00
17992;DHT22;9121;50.926;5.340;2023-12-28T07:59:45;10.70;1.00
17992;DHT22;9121;50.926;5.340;2023-12-28T08:02:12;10.70;1.00
17992;DHT22;9121;50.926;5.340;2023-12-28T08:04:39;10.70;1.00
17992;DHT22;9121;50.926;5.340;2023-12-28T08:07:07;10.60;1.00
17992;DHT22;9121;50.926;5.340;2023-12-28T08:09:34;10.60;1.00
17992;DHT22;9121;50.926;5.340;2023-12-28T08:12:02;10.60;1.00
17992;DHT22;9121;50.926;5.340;2023-12-28T08:14:29;10.60;1.00
17992;DHT22;9121;50.926;5.340;2023-12-28T08:16:57;10.60;1.00
17992;DHT22;9121;50.926;5.340;2023-12-28T08:19:23;10.60;1.00
17992;DHT22;9121;50.926;5.340;2023-12-28T08:21:50;10.60;1.00
17992;DHT22;9121;50.926;5.340;2023-12-28T08:24:19;10.60;1.00
17992;DHT22;9121;50.926;5.340;2023-12-28T08:26:46;10.60;1.00
17992;DHT22;9121;50.926;5.340;2023-12-28T08:29:12;10.60;1.00
17992;DHT22;9121;50.926;5.340;2023-12-28T08:31:39;10.70;1.00
17992;DHT22;9121;50.926;5.340;2023-12-28T08:34:06;10.70;1.00
17992;DHT22;9121;50.926;5.340;2023-12-28T08:36:33;10.70;1.00
17992;DHT22;9121;50.926;5.340;2023-12-28T08:39:00;10.70;1.00
17992;DHT22;9121;50.926;5.340;2023-12-28T08:41:29;10.80;1.00
17992;DHT22;9121;50.926;5.340;2023-12-28T08:43:56;10.80;99.90
17992;DHT22;9121;50.926;5.340;2023-12-28T08:46:22;10.90;99.90
17992;DHT22;9121;50.926;5.340;2023-12-28T08:48:50;10.90;99.90
17992;DHT22;9121;50.926;5.340;2023-12-28T08:51:17;11.00;99.90
17992;DHT22;9121;50.926;5.340;2023-12-28T08:53:44;11.00;99.90
17992;DHT22;9121;50.926;5.340;2023-12-28T08:56:17;11.10;99.90
17992;DHT22;9121;50.926;5.340;2023-12-28T08:58:46;11.10;99.90
17992;DHT22;9121;50.926;5.340;2023-12-28T09:01:17;11.10;99.90
17992;DHT22;9121;50.926;5.340;2023-12-28T09:03:44;11.10;99.90
17992;DHT22;9121;50.926;5.340;2023-12-28T09:06:11;11.10;99.90
17992;DHT22;9121;50.926;5.340;2023-12-28T09:08:41;11.10;99.90
17992;DHT22;9121;50.926;5.340;2023-12-28T09:11:10;11.20;99.90
17992;DHT22;9121;50.926;5.340;2023-12-28T09:13:37;11.10;99.90
17992;DHT22;9121;50.926;5.340;2023-12-28T09:16:05;11.20;99.90
17992;DHT22;9121;50.926;5.340;2023-12-28T09:18:32;11.20;99.90
17992;DHT22;9121;50.926;5.340;2023-12-28T09:20:59;11.20;99.90
17992;DHT22;9121;50.926;5.340;2023-12-28T09:23:26;11.20;99.90
17992;DHT22;9121;50.926;5.340;2023-12-28T09:25:53;11.20;99.90
17992;DHT22;9121;50.926;5.340;2023-12-28T09:28:20;11.30;99.90
17992;DHT22;9121;50.926;5.340;2023-12-28T09:30:47;11.30;99.90
17992;DHT22;9121;50.926;5.340;2023-12-28T09:33:15;11.30;99.90
17992;DHT22;9121;50.926;5.340;2023-12-28T09:35:43;11.40;99.90
17992;DHT22;9121;50.926;5.340;2023-12-28T09:38:10;11.40;99.90
17992;DHT22;9121;50.926;5.340;2023-12-28T09:40:37;11.50;99.90
17992;DHT22;9121;50.926;5.340;2023-12-28T09:43:15;11.50;99.90
17992;DHT22;9121;50.926;5.340;2023-12-28T09:45:46;11.50;99.90
17992;DHT22;9121;50.926;5.340;2023-12-28T09:48:17;11.50;99.90
17992;DHT22;9121;50.926;5.340;2023-12-28T09:50:44;11.50;99.90
17992;DHT22;9121;50.926;5.340;2023-12-28T09:53:11;11.50;99.90
17992;DHT22;9121;50.926;5.340;2023-12-28T09:55:38;11.50;99.90
17992;DHT22;9121;50.926;5.340;2023-12-28T09:58:05;11.50;99.90
17992;DHT22;9121;50.926;5.340;2023-12-28T10:00:32;11.50;99.90
17992;DHT22;9121;50.926;5.340;2023-12-28T10:03:00;11.50;99.90
